Time;durP1;ratioP1;P1;durP2;ratioP2;P2;SDS_P1;SDS_P2;PMS_P1;PMS_P2;Temp;Humidity;BMP_temperature;BMP_pressure;BME280_temperature;BME280_humidity;BME280_pressure;Samples;Min_cycle;Max_cycle;Signal;HPM_P1;HPM_P2
2021/08/19 00:01:59;;;;;;;9.27;6.05;;;17.40;99.90;;;16.22;93.26;101037.09;2569251;30;137146;-40
2021/08/19 00:04:26;;;;;;;10.00;6.60;;;17.40;99.90;;;16.26;93.29;101040.16;2568461;30;139096;-40
2021/08/19 00:06:54;;;;;;;11.02;6.45;;;17.40;99.90;;;16.24;92.87;101034.06;2568210;30;136859;-40
2021/08/19 00:09:21;;;;;;;9.23;5.63;;;17.50;99.90;;;16.24;93.18;101032.16;2569912;30;138114;-40
2021/08/19 00:11:49;;;;;;;11.73;7.05;;;17.50;99.90;;;16.24;92.68;101034.91;2567332;30;137350;-40
2021/08/19 00:14:17;;;;;;;9.60;5.57;;;17.50;99.90;;;16.23;93.23;101026.91;2568704;30;138328;-40
2021/08/19 00:16:44;;;;;;;8.85;5.90;;;17.50;99.90;;;16.22;93.23;101028.81;2567943;30;137165;-40
2021/08/19 00:19:12;;;;;;;9.82;5.88;;;17.50;99.90;;;16.20;93.35;101031.00;2566533;30;139003;-41
2021/08/19 00:21:40;;;;;;;9.52;5.82;;;17.40;99.90;;;16.18;93.53;101027.66;2568563;30;138705;-40
2021/08/19 00:24:07;;;;;;;;;;;17.50;99.90;;;16.21;93.32;101024.41;2568027;30;139068;-42
2021/08/19 00:26:35;;;;;;;10.23;5.65;;;17.40;99.90;;;16.20;93.19;101031.00;2568936;30;136683;-42
2021/08/19 00:29:05;;;;;;;12.30;5.75;;;17.50;99.90;;;16.20;93.71;101025.50;2569048;30;140495;-40
2021/08/19 00:31:32;;;;;;;10.13;5.97;;;17.50;99.90;;;16.23;93.79;101024.16;2568465;30;137502;-40
2021/08/19 00:34:00;;;;;;;11.30;6.03;;;17.50;99.90;;;16.27;94.00;101016.25;2569273;30;138197;-41
2021/08/19 00:36:27;;;;;;;10.55;5.82;;;17.50;99.90;;;16.25;93.33;101016.47;2567285;30;138308;-40
2021/08/19 00:38:55;;;;;;;9.60;5.95;;;17.50;99.90;;;16.23;93.10;101019.50;2568672;30;138321;-40
2021/08/19 00:41:23;;;;;;;8.30;5.07;;;17.50;99.90;;;16.25;93.44;101022.81;2568518;30;138440;-40
2021/08/19 00:43:51;;;;;;;9.95;5.72;;;17.50;99.90;;;16.23;93.39;101022.25;2567533;30;138355;-41
2021/08/19 00:46:50;;;;;;;8.63;5.60;;;17.50;99.90;;;16.28;92.17;101006.91;2568791;30;137651;-40
2021/08/19 00:49:18;;;;;;;11.43;5.68;;;17.60;99.90;;;16.29;92.64;101019.56;2568220;30;137827;-40
2021/08/19 00:51:52;;;;;;;9.13;5.88;;;17.50;99.90;;;16.25;92.79;101016.47;2567679;30;137641;-40
2021/08/19 00:54:27;;;;;;;9.93;5.97;;;17.50;99.90;;;16.27;92.84;101008.81;2566284;30;139510;-40
2021/08/19 00:57:01;;;;;;;10.43;5.38;;;17.50;99.90;;;16.27;92.82;101016.25;2565545;30;137810;-40
2021/08/19 00:59:39;;;;;;;11.05;6.00;;;17.50;99.90;;;16.29;92.40;101009.38;2566785;30;138284;-40
2021/08/19 01:02:10;;;;;;;8.93;5.70;;;17.50;99.90;;;16.31;92.74;101021.03;2568865;30;137333;-40
2021/08/19 01:04:40;;;;;;;11.60;6.07;;;17.50;99.90;;;16.32;92.01;101010.81;2567997;30;138466;-41
2021/08/19 01:07:09;;;;;;;8.32;5.63;;;17.60;99.90;;;16.37;91.75;101010.91;2568156;30;138299;-40
2021/08/19 01:09:38;;;;;;;9.98;4.95;;;17.60;99.90;;;16.33;91.98;101007.00;2568519;30;136750;-40
2021/08/19 01:12:09;;;;;;;11.65;6.05;;;17.60;99.90;;;16.29;92.83;101011.31;2569043;30;137524;-40
2021/08/19 01:14:37;;;;;;;10.30;6.22;;;17.50;99.90;;;16.35;91.89;101013.09;2568902;30;137479;-40
2021/08/19 01:17:17;;;;;;;11.82;6.07;;;17.60;99.90;;;16.36;91.51;101006.50;2567425;30;138483;-40
2021/08/19 01:19:49;;;;;;;9.90;5.35;;;17.60;99.90;;;16.40;91.60;101007.66;2566438;30;137478;-41
2021/08/19 01:22:18;;;;;;;8.60;5.55;;;17.60;99.90;;;16.38;91.65;101013.44;2568986;30;137432;-40
2021/08/19 01:24:46;;;;;;;10.80;5.50;;;17.60;99.90;;;16.33;91.42;101015.25;2568687;30;137325;-40
2021/08/19 01:27:16;;;;;;;11.30;6.18;;;17.60;99.90;;;16.39;91.99;101012.34;2567885;30;136684;-41
2021/08/19 01:29:48;;;;;;;10.25;6.30;;;17.60;99.90;;;16.39;90.89;101008.75;2568733;30;136936;-40
2021/08/19 01:32:17;;;;;;;11.57;5.30;;;17.60;99.90;;;16.45;91.46;101009.69;2567674;30;137037;-40
2021/08/19 01:34:45;;;;;;;10.13;5.70;;;17.70;99.90;;;16.38;91.62;101016.19;2566689;30;138236;-40
2021/08/19 01:37:13;;;;;;;10.95;6.13;;;17.60;99.90;;;16.37;91.46;101008.16;2567098;30;137824;-40
2021/08/19 01:39:40;;;;;;;9.50;5.50;;;17.60;99.90;;;16.39;91.88;101001.34;2568136;30;136756;-40
2021/08/19 01:42:08;;;;;;;8.20;5.43;;;17.60;99.90;;;16.38;90.99;101010.69;2567087;30;137090;-40
2021/08/19 01:44:36;;;;;;;9.70;5.68;;;17.60;99.90;;;16.44;90.71;101003.31;2566905;30;138701;-40
2021/08/19 01:47:06;;;;;;;7.93;4.63;;;17.70;99.90;;;16.39;91.23;101009.59;2567929;30;137393;-41
2021/08/19 01:49:35;;;;;;;10.40;5.68;;;17.60;99.90;;;16.41;91.55;101009.34;2568841;30;139188;-41
2021/08/19 01:52:05;;;;;;;9.40;5.32;;;17.60;99.90;;;16.45;91.53;101009.69;2567820;30;137949;-40
2021/08/19 01:54:32;;;;;;;9.38;5.35;;;17.60;99.90;;;16.36;90.97;100996.31;2565949;30;138001;-41
2021/08/19 01:57:01;;;;;;;10.00;5.70;;;17.60;99.90;;;16.45;91.03;101002.28;2567398;30;138196;-41
2021/08/19 01:59:29;;;;;;;11.30;5.65;;;17.60;99.90;;;16.37;90.84;100995.25;2568355;30;138286;-40
2021/08/19 02:02:00;;;;;;;9.30;5.55;;;17.70;99.90;;;16.43;90.99;100998.91;2567840;30;137691;-40
2021/08/19 02:04:29;;;;;;;7.75;5.10;;;17.60;99.90;;;16.35;91.31;100997.41;2566877;30;137526;-40
2021/08/19 02:06:56;;;;;;;9.80;5.25;;;17.60;99.90;;;16.40;91.26;100996.66;2568202;30;138271;-42
2021/08/19 02:09:24;;;;;;;9.40;5.85;;;17.60;99.90;;;16.45;90.73;100998.66;2569250;30;137721;-40
2021/08/19 02:11:51;;;;;;;11.77;5.15;;;17.60;99.90;;;16.43;90.58;101001.66;2567717;30;138458;-40
2021/08/19 02:14:19;;;;;;;11.40;5.45;;;17.60;99.90;;;16.42;91.34;101004.69;2567292;30;138278;-40
2021/08/19 02:16:46;;;;;;;10.65;5.80;;;17.60;99.90;;;16.39;91.08;101011.50;2567263;30;137761;-40
2021/08/19 02:19:14;;;;;;;9.63;5.13;;;17.60;99.90;;;16.44;91.02;101014.34;2567997;30;138320;-40
2021/08/19 02:21:41;;;;;;;10.13;5.43;;;17.60;99.90;;;16.43;90.87;101009.09;2568172;30;137493;-41
2021/08/19 02:24:09;;;;;;;8.20;5.05;;;17.60;99.90;;;16.38;91.60;101005.19;2566340;30;139099;-40
2021/08/19 02:26:36;;;;;;;9.95;5.40;;;17.60;99.90;;;16.41;91.91;101009.34;2568847;30;137349;-40
2021/08/19 02:29:04;;;;;;;9.63;5.25;;;17.60;99.90;;;16.33;91.70;101004.22;2568623;30;138558;-40
2021/08/19 02:31:31;;;;;;;11.43;5.47;;;17.60;99.90;;;16.32;92.47;100999.81;2565134;30;137233;-40
2021/08/19 02:33:59;;;;;;;11.23;5.47;;;17.50;99.90;;;16.30;92.10;101004.72;2567507;30;138250;-39
2021/08/19 02:36:26;;;;;;;8.80;5.35;;;17.50;99.90;;;16.28;92.56;101004.16;2566951;30;137413;-40
2021/08/19 02:38:53;;;;;;;9.88;5.47;;;17.50;99.90;;;16.25;92.64;101000.81;2565200;30;138293;-40
2021/08/19 02:41:21;;;;;;;12.23;6.32;;;17.50;99.90;;;16.24;93.11;101001.03;2567878;30;138011;-40
2021/08/19 02:43:48;;;;;;;8.75;5.43;;;17.50;99.90;;;16.26;93.21;100996.13;2567809;30;139029;-40
2021/08/19 02:46:16;;;;;;;9.77;5.50;;;17.50;99.90;;;16.21;93.07;100987.78;2578285;30;137940;-39
2021/08/19 02:48:43;;;;;;;9.35;5.25;;;17.50;99.90;;;16.21;93.32;100991.38;2568231;30;137374;-39
2021/08/19 02:51:11;;;;;;;9.88;5.93;;;17.50;99.90;;;16.16;94.17;100994.00;2569028;30;139560;-39
2021/08/19 02:53:38;;;;;;;11.85;6.05;;;17.40;99.90;;;16.14;94.95;100989.84;2566626;30;138347;-39
2021/08/19 02:56:07;;;;;;;9.18;5.97;;;17.40;99.90;;;16.14;94.63;100992.59;2570490;30;137612;-39
2021/08/19 02:58:34;;;;;;;10.98;5.90;;;17.40;99.90;;;16.09;95.67;100985.06;2568496;30;138301;-39
2021/08/19 03:01:01;;;;;;;10.30;6.05;;;17.40;99.90;;;16.07;95.85;100982.59;2568308;30;137484;-39
2021/08/19 03:03:29;;;;;;;11.38;6.28;;;17.30;99.90;;;16.05;95.61;100984.75;2570564;30;137132;-39
2021/08/19 03:05:57;;;;;;;9.32;5.57;;;17.30;99.90;;;15.98;96.53;100986.78;2568448;30;138506;-38
2021/08/19 03:08:24;;;;;;;12.30;5.72;;;17.30;99.90;;;15.98;97.48;100985.97;2568067;30;138994;-39
2021/08/19 03:10:52;;;;;;;10.48;6.05;;;;;;;15.91;97.43;100989.69;2570773;30;138784;-38
2021/08/19 03:13:19;;;;;;;;;;;17.20;99.90;;;15.88;98.21;100983.81;2569349;30;137629;-39
2021/08/19 03:15:47;;;;;;;9.18;5.97;;;17.20;99.90;;;15.84;98.35;100986.19;2568360;30;136839;-38
2021/08/19 03:18:14;;;;;;;9.95;5.90;;;17.10;99.90;;;15.79;98.64;100988.84;2568020;30;139090;-39
2021/08/19 03:20:42;;;;;;;8.15;5.28;;;17.10;99.90;;;15.77;98.86;100988.25;2569023;30;137621;-39
2021/08/19 03:23:09;;;;;;;12.60;6.38;;;17.10;99.90;;;15.73;99.50;100985.16;2570347;30;138318;-39
2021/08/19 03:25:37;;;;;;;10.35;5.80;;;17.00;99.90;;;15.78;99.59;100989.94;2568997;30;136923;-39
2021/08/19 03:28:07;;;;;;;10.30;6.15;;;17.00;99.90;;;15.82;99.61;100986.47;2568910;30;138427;-39
2021/08/19 03:30:36;;;;;;;9.38;6.05;;;17.10;99.90;;;15.78;99.43;100987.19;2567637;30;137486;-39
2021/08/19 03:33:07;;;;;;;9.82;5.78;;;17.10;99.90;;;15.74;99.75;100977.75;2568338;30;136864;-38
2021/08/19 03:35:34;;;;;;;12.90;6.22;;;17.00;99.90;;;15.72;99.39;100990.91;2567976;30;137709;-39
2021/08/19 03:38:02;;;;;;;9.68;5.85;;;17.00;99.90;;;15.77;99.92;100985.50;2568560;30;137880;-39
2021/08/19 03:40:29;;;;;;;8.88;5.32;;;17.00;99.90;;;15.74;99.93;100989.56;2568082;30;136759;-39
2021/08/19 03:42:57;;;;;;;11.88;6.63;;;17.00;99.90;;;15.79;100.00;100975.94;2569323;30;138456;-39
2021/08/19 03:45:24;;;;;;;9.48;5.40;;;17.00;99.90;;;15.79;99.70;100983.34;2568054;30;137723;-39
2021/08/19 03:47:52;;;;;;;11.20;6.00;;;17.00;99.90;;;15.77;99.83;100982.75;2567029;30;138632;-39
2021/08/19 03:50:19;;;;;;;9.30;5.53;;;17.00;99.90;;;15.78;99.37;100976.19;2567785;30;137601;-39
2021/08/19 03:52:47;;;;;;;11.23;5.90;;;17.00;99.90;;;15.78;99.63;100982.53;2568732;30;137551;-39
2021/08/19 03:55:15;;;;;;;11.25;6.68;;;17.00;99.90;;;15.73;99.36;100976.09;2569289;30;137412;-38
2021/08/19 03:57:43;;;;;;;11.00;5.53;;;17.00;99.90;;;15.72;100.00;100975.22;2570136;30;138272;-40
2021/08/19 04:00:11;;;;;;;;;;;17.00;99.90;;;15.79;98.97;100975.09;2566428;30;138066;-39
2021/08/19 04:02:39;;;;;;;10.27;6.25;;;17.00;99.90;;;15.75;99.39;100969.25;2569389;30;139183;-38
2021/08/19 04:05:08;;;;;;;12.70;6.25;;;17.00;99.90;;;15.74;99.65;100973.06;2570241;30;136889;-39
2021/08/19 04:07:38;;;;;;;10.85;5.57;;;17.00;99.90;;;15.70;99.23;100966.38;2568004;30;137271;-39
2021/08/19 04:10:07;;;;;;;10.95;5.82;;;17.00;99.90;;;15.74;99.21;100969.50;2570353;30;136958;-39
2021/08/19 04:12:36;;;;;;;11.23;6.13;;;17.00;99.90;;;15.76;99.15;100975.59;2567955;30;138398;-38
2021/08/19 04:15:06;;;;;;;10.05;6.45;;;17.00;99.90;;;15.77;98.63;100980.84;2570365;30;138270;-38
2021/08/19 04:17:33;;;;;;;9.63;5.28;;;17.00;99.90;;;15.80;98.53;100976.78;2565366;30;138744;-39
2021/08/19 04:20:01;;;;;;;10.68;6.35;;;17.00;99.90;;;15.79;98.61;100977.84;2567605;30;137024;-39
2021/08/19 04:22:28;;;;;;;9.63;6.07;;;17.00;99.90;;;15.77;97.86;100978.09;2567068;30;137471;-39
2021/08/19 04:24:56;;;;;;;12.88;6.60;;;17.00;99.90;;;15.75;98.05;100982.19;2568142;30;136906;-38
2021/08/19 04:27:24;;;;;;;13.25;6.90;;;17.00;99.90;;;15.73;98.42;100976.91;2568254;30;137336;-39
2021/08/19 04:29:51;;;;;;;11.30;6.03;;;17.00;99.90;;;15.75;98.14;100973.91;2568776;30;137561;-39
2021/08/19 04:32:19;;;;;;;12.30;6.43;;;17.00;99.90;;;15.77;98.02;100971.75;2565794;30;138044;-39
2021/08/19 04:34:46;;;;;;;11.73;6.13;;;17.00;99.90;;;15.72;98.23;100975.22;2569173;30;137516;-38
2021/08/19 04:37:14;;;;;;;9.73;6.22;;;17.00;99.90;;;15.74;98.42;100969.50;2569936;30;138103;-38
2021/08/19 04:39:41;;;;;;;10.38;6.22;;;17.00;99.90;;;15.80;98.19;100966.63;2569847;30;136876;-39
2021/08/19 04:42:09;;;;;;;9.80;5.80;;;17.00;99.90;;;15.77;97.61;100971.75;2569224;30;138192;-39
2021/08/19 04:44:36;;;;;;;11.77;5.70;;;17.00;99.90;;;15.76;97.82;100976.41;2573152;30;136846;-39
2021/08/19 04:47:04;;;;;;;9.90;6.18;;;17.00;99.90;;;15.75;98.02;100976.66;2568568;30;137407;-39
2021/08/19 04:49:32;;;;;;;;;;;17.00;99.90;;;15.72;97.76;100980.72;2570983;30;137193;-39
2021/08/19 04:51:59;;;;;;;11.55;6.38;;;17.00;99.90;;;15.75;97.33;100973.91;2570406;30;137494;-39
2021/08/19 04:54:27;;;;;;;9.52;5.90;;;17.00;99.90;;;15.75;96.81;100980.25;2569859;30;136694;-39
2021/08/19 04:56:55;;;;;;;9.27;5.47;;;17.00;99.90;;;15.75;96.97;100984.94;2565027;30;138132;-39
2021/08/19 04:59:23;;;;;;;11.68;5.80;;;17.00;99.90;;;15.74;97.03;100986.00;2569204;30;136799;-39
2021/08/19 05:01:50;;;;;;;10.30;6.05;;;17.00;99.90;;;15.77;96.38;100972.56;2571778;30;139221;-38
2021/08/19 05:04:21;;;;;;;10.20;5.70;;;17.10;99.90;;;15.73;96.77;100978.84;2570480;30;138208;-39
2021/08/19 05:06:48;;;;;;;10.60;5.82;;;17.00;99.90;;;15.74;96.63;100988.75;2569250;30;138182;-39
2021/08/19 05:09:16;;;;;;;11.73;5.30;;;17.00;99.90;;;15.79;96.04;100994.34;2569857;30;137316;-39
2021/08/19 05:11:43;;;;;;;10.90;5.97;;;17.00;99.90;;;15.82;95.39;100986.47;2570624;30;138084;-39
2021/08/19 05:14:11;;;;;;;10.05;5.78;;;17.00;99.90;;;15.83;94.92;100987.28;2570614;30;137448;-39
2021/08/19 05:16:39;;;;;;;10.85;5.15;;;17.10;99.90;;;15.83;94.81;100990.03;2570773;30;138269;-38
2021/08/19 05:19:06;;;;;;;9.45;5.78;;;17.10;99.90;;;15.81;95.40;100992.19;2569083;30;137814;-39
2021/08/19 05:21:34;;;;;;;9.90;5.38;;;17.00;99.90;;;15.78;95.31;101003.69;2569006;30;138369;-38
2021/08/19 05:24:01;;;;;;;10.60;6.07;;;17.10;99.90;;;15.77;95.85;101004.75;2568591;30;137216;-37
2021/08/19 05:26:29;;;;;;;8.98;5.50;;;17.00;99.90;;;15.75;95.93;101005.00;2568389;30;138008;-39
2021/08/19 05:28:56;;;;;;;10.52;5.82;;;17.00;99.90;;;15.74;96.28;100997.00;2569161;30;136752;-39
2021/08/19 05:31:24;;;;;;;9.90;4.93;;;17.00;99.90;;;15.76;96.21;101003.91;2568847;30;137455;-39
2021/08/19 05:33:54;;;;;;;10.65;5.80;;;17.00;99.90;;;15.78;95.52;101001.78;2570028;30;137318;-39
2021/08/19 05:36:22;;;;;;;9.63;5.00;;;17.00;99.90;;;15.75;95.84;100995.94;2567043;30;139658;-39
2021/08/19 05:38:50;;;;;;;9.00;5.07;;;17.00;99.90;;;15.77;95.77;101008.34;2569381;30;137486;-39
2021/08/19 05:41:17;;;;;;;12.25;5.35;;;17.00;99.90;;;15.80;95.95;101009.78;2570584;30;136759;-39
2021/08/19 05:43:45;;;;;;;9.43;5.25;;;17.00;99.90;;;15.78;96.10;101004.53;2569189;30;137643;-39
2021/08/19 05:46:12;;;;;;;11.10;6.03;;;17.10;99.90;;;15.81;95.75;101008.69;2567591;30;138570;-39
2021/08/19 05:48:40;;;;;;;8.75;5.38;;;17.10;99.90;;;15.80;95.54;101004.28;2569812;30;138076;-39
2021/08/19 05:51:10;;;;;;;9.95;5.07;;;17.10;99.90;;;15.83;95.35;101014.78;2566924;30;138775;-39
2021/08/19 05:53:37;;;;;;;9.50;5.45;;;17.10;99.90;;;15.85;94.84;101020.88;2569183;30;138470;-39
2021/08/19 05:56:05;;;;;;;9.90;5.60;;;17.10;99.90;;;15.84;94.77;101021.16;2569463;30;137628;-38
2021/08/19 05:58:32;;;;;;;9.15;5.25;;;17.10;99.90;;;15.87;95.70;101017.91;2569381;30;138370;-39
2021/08/19 06:01:00;;;;;;;11.02;5.85;;;17.10;99.90;;;16.01;94.14;101022.06;2569125;30;136815;-41
2021/08/19 06:03:28;;;;;;;10.68;5.82;;;17.20;99.90;;;15.98;94.45;101018.97;2570029;30;137813;-39
2021/08/19 06:05:56;;;;;;;11.85;6.03;;;17.20;99.90;;;15.97;93.88;101012.63;2570249;30;136781;-40
2021/08/19 06:08:23;;;;;;;8.85;5.55;;;17.20;99.90;;;15.98;93.96;101016.22;2567026;30;137169;-39
2021/08/19 06:10:51;;;;;;;9.23;6.10;;;17.20;99.90;;;16.03;92.99;101014.41;2570142;30;137216;-39
2021/08/19 06:13:18;;;;;;;9.13;5.88;;;17.30;99.90;;;16.05;93.13;101017.78;2567061;30;138144;-39
2021/08/19 06:15:46;;;;;;;12.10;5.43;;;17.30;99.90;;;16.03;93.09;101019.06;2571687;30;138219;-40
2021/08/19 06:18:13;;;;;;;;;;;17.30;99.90;;;16.11;93.50;101015.94;2570042;30;137398;-39
2021/08/19 06:20:41;;;;;;;10.65;6.30;;;17.30;99.90;;;16.13;93.41;101024.78;2568901;30;138788;-39
2021/08/19 06:23:12;;;;;;;9.38;5.82;;;17.30;99.90;;;16.17;93.13;101022.38;2569438;30;137478;-39
2021/08/19 06:25:42;;;;;;;8.85;5.47;;;17.30;99.90;;;16.14;92.94;101026.44;2566407;30;139305;-39
2021/08/19 06:28:10;;;;;;;9.25;5.97;;;17.30;99.90;;;16.19;92.88;101022.97;2569696;30;137714;-39
2021/08/19 06:30:38;;;;;;;10.38;5.88;;;17.40;99.90;;;16.21;93.28;101021.66;2569560;30;137313;-39
2021/08/19 06:33:06;;;;;;;9.20;5.43;;;17.40;99.90;;;16.25;93.11;101019.22;2567482;30;136755;-39
2021/08/19 06:35:33;;;;;;;9.43;5.60;;;17.50;99.90;;;16.33;92.76;101029.00;2567224;30;137791;-39
2021/08/19 06:38:01;;;;;;;7.80;5.32;;;17.50;99.90;;;16.36;92.77;101032.13;2569619;30;137016;-39
2021/08/19 06:40:29;;;;;;;10.40;5.55;;;17.50;99.90;;;16.47;91.13;101024.88;2568601;30;137514;-39
2021/08/19 06:42:56;;;;;;;9.30;5.68;;;17.60;99.90;;;16.54;90.24;101030.22;2568710;30;137678;-39
2021/08/19 06:45:24;;;;;;;9.85;6.07;;;17.70;99.90;;;16.54;91.70;101028.31;2568636;30;137360;-39
2021/08/19 06:47:51;;;;;;;;;;;17.70;99.90;;;16.53;91.25;101026.63;2570796;30;137873;-39
2021/08/19 06:50:19;;;;;;;11.00;6.22;;;17.70;99.90;;;16.57;91.12;101034.41;2569655;30;137344;-39
2021/08/19 06:52:46;;;;;;;11.00;5.82;;;17.70;99.90;;;16.58;90.99;101031.41;2568351;30;137798;-39
2021/08/19 06:55:14;;;;;;;10.60;5.57;;;17.70;99.90;;;16.54;90.44;101031.06;2568940;30;138899;-39
2021/08/19 06:57:42;;;;;;;12.18;6.45;;;17.70;99.90;;;16.54;90.18;101042.09;2567947;30;137084;-39
2021/08/19 07:00:10;;;;;;;;;;;17.70;99.90;;;16.57;90.04;101042.66;2568820;30;137219;-39
2021/08/19 07:02:38;;;;;;;10.90;6.07;;;17.70;99.90;;;16.59;90.08;101043.25;2568002;30;137217;-39
2021/08/19 07:05:07;;;;;;;;;;;17.80;99.90;;;16.60;90.71;101037.50;2570531;30;138152;-39
2021/08/19 07:07:35;;;;;;;10.88;5.85;;;17.80;99.90;;;16.67;89.62;101042.84;2569367;30;137055;-39
2021/08/19 07:10:07;;;;;;;12.50;6.88;;;17.80;99.90;;;16.71;89.66;101040.44;2567399;30;137335;-39
2021/08/19 07:12:36;;;;;;;12.55;6.57;;;17.80;99.90;;;16.80;89.81;101045.28;2569341;30;136780;-39
2021/08/19 07:15:07;;;;;;;10.82;6.43;;;17.90;99.90;;;16.88;89.17;101041.28;2568270;30;138155;-39
2021/08/19 07:17:35;;;;;;;12.55;7.13;;;18.00;99.90;;;16.95;89.59;101036.44;2570139;30;137451;-39
2021/08/19 07:20:04;;;;;;;11.63;7.20;;;18.00;99.90;;;16.99;89.01;101042.34;2567937;30;138423;-39
2021/08/19 07:22:32;;;;;;;11.02;6.95;;;18.10;99.90;;;16.95;88.29;101041.97;2568981;30;138540;-38
2021/08/19 07:24:59;;;;;;;;;;;18.10;99.90;;;16.98;87.06;101046.19;2570199;30;138111;-39
2021/08/19 07:27:27;;;;;;;12.55;6.95;;;18.10;99.90;;;16.99;87.35;101047.84;2569604;30;136872;-39
2021/08/19 07:29:54;;;;;;;13.00;6.90;;;18.10;99.90;;;16.96;87.74;101048.28;2568265;30;138304;-38
2021/08/19 07:32:22;;;;;;;14.20;6.85;;;18.20;99.90;;;16.96;87.76;101040.03;2568853;30;137837;-39
2021/08/19 07:34:49;;;;;;;13.98;7.00;;;18.10;99.90;;;16.96;87.66;101045.53;2566977;30;137915;-39
2021/08/19 07:37:17;;;;;;;11.85;6.50;;;18.10;99.90;;;17.00;87.69;101046.75;2568011;30;138245;-39
2021/08/19 07:39:44;;;;;;;;;;;18.20;99.90;;;17.01;87.04;101056.69;2570086;30;138582;-40
2021/08/19 07:42:12;;;;;;;11.90;6.88;;;18.20;99.90;;;17.01;86.78;101051.19;2569345;30;138253;-40
2021/08/19 07:44:40;;;;;;;13.25;6.88;;;18.20;99.90;;;16.99;86.77;101060.78;2568361;30;138602;-38
2021/08/19 07:47:07;;;;;;;13.10;7.32;;;18.20;99.90;;;17.02;87.60;101052.00;2569902;30;138435;-39
2021/08/19 07:49:35;;;;;;;12.48;7.25;;;18.20;99.90;;;17.06;87.52;101054.03;2569636;30;138221;-39
2021/08/19 07:52:03;;;;;;;12.30;7.28;;;18.20;99.90;;;17.14;86.07;101057.44;2568544;30;136829;-39
2021/08/19 07:54:31;;;;;;;10.73;7.05;;;18.30;99.90;;;17.13;86.17;101064.88;2568024;30;138425;-40
2021/08/19 07:56:58;;;;;;;11.52;7.25;;;18.30;99.90;;;17.05;86.39;101063.38;2566969;30;138249;-39
2021/08/19 07:59:26;;;;;;;13.10;7.72;;;18.30;99.90;;;17.06;86.69;101056.78;2567484;30;138359;-39
2021/08/19 08:01:56;;;;;;;11.35;7.20;;;18.20;99.90;;;17.06;86.74;101062.28;2572256;30;138607;-40
2021/08/19 08:04:24;;;;;;;11.23;7.30;;;18.30;99.90;;;17.14;87.25;101065.69;2569955;30;138355;-39
2021/08/19 08:06:52;;;;;;;12.32;8.25;;;18.30;99.90;;;17.19;86.75;101065.78;2568882;30;137696;-39
2021/08/19 08:09:19;;;;;;;12.07;7.03;;;18.30;99.90;;;17.17;86.09;101065.19;2568955;30;138411;-39
2021/08/19 08:11:47;;;;;;;13.52;7.95;;;18.30;99.90;;;17.15;85.70;101059.09;2569359;30;137540;-39
2021/08/19 08:14:14;;;;;;;11.90;7.22;;;18.30;99.90;;;17.11;85.40;101069.81;2569319;30;139306;-39
2021/08/19 08:16:42;;;;;;;12.70;7.03;;;18.30;99.90;;;17.08;86.86;101062.03;2568485;30;137486;-39
2021/08/19 08:19:10;;;;;;;10.65;6.90;;;18.30;99.90;;;17.13;87.45;101064.03;2568715;30;138197;-39
2021/08/19 08:21:38;;;;;;;9.45;6.82;;;18.20;99.90;;;17.13;86.74;101066.78;2569767;30;137165;-39
2021/08/19 08:24:06;;;;;;;11.02;7.45;;;18.30;99.90;;;17.14;86.14;101065.69;2570703;30;138552;-39
2021/08/19 08:26:35;;;;;;;12.95;7.03;;;18.30;99.90;;;17.14;85.54;101065.69;2568427;30;136869;-39
2021/08/19 08:29:03;;;;;;;16.58;7.53;;;18.30;99.90;;;17.14;85.61;101069.31;2568763;30;138173;-39
2021/08/19 08:31:33;;;;;;;12.00;7.63;;;18.30;99.90;;;17.16;84.89;101063.53;2567766;30;137615;-39
2021/08/19 08:34:01;;;;;;;13.90;8.43;;;18.30;99.90;;;17.20;85.75;101065.53;2569080;30;138370;-39
2021/08/19 08:36:28;;;;;;;12.40;7.70;;;18.30;99.90;;;17.22;85.44;101068.88;2571492;30;137456;-39
2021/08/19 08:38:56;;;;;;;13.48;7.78;;;18.40;99.90;;;17.31;85.60;101069.31;2568236;30;139005;-39
2021/08/19 08:41:25;;;;;;;12.82;7.35;;;18.40;99.90;;;17.33;84.92;101075.41;2569154;30;137734;-39
2021/08/19 08:43:52;;;;;;;12.38;7.78;;;18.40;99.90;;;17.44;84.47;101075.53;2569499;30;138229;-39
2021/08/19 08:46:22;;;;;;;;;;;18.50;99.90;;;17.49;84.46;101079.22;2578874;30;137895;-40
2021/08/19 08:48:55;;;;;;;11.32;7.15;;;18.60;99.90;;;17.55;84.29;101082.91;2569064;30;138299;-40
2021/08/19 08:51:25;;;;;;;9.75;6.65;;;18.60;99.90;;;17.60;84.40;101080.22;2568527;30;136616;-41
2021/08/19 08:53:52;;;;;;;10.80;7.22;;;18.60;99.90;;;17.65;84.61;101084.97;2568831;30;138480;-40
2021/08/19 08:56:24;;;;;;;11.88;6.88;;;18.70;99.90;;;17.63;84.63;101085.22;2568214;30;138760;-40
2021/08/19 08:58:52;;;;;;;13.10;7.35;;;18.70;99.90;;;17.65;83.79;101084.97;2566787;30;138461;-40
2021/08/19 09:01:20;;;;;;;10.55;7.03;;;18.80;99.90;;;17.59;83.35;101092.31;2566548;30;137708;-40
2021/08/19 09:03:48;;;;;;;13.20;7.50;;;18.70;99.90;;;17.63;83.42;101095.41;2568939;30;138111;-41
2021/08/19 09:06:39;;;;;;;11.68;7.32;;;18.80;99.90;;;17.63;83.52;101099.00;2568526;30;137446;-41
2021/08/19 09:09:18;;;;;;;12.27;6.80;;;18.70;99.90;;;17.62;82.39;101088.22;2567542;30;138023;-41
2021/08/19 09:12:04;;;;;;;11.77;7.32;;;18.70;99.90;;;17.64;83.55;101108.94;2566783;30;137621;-40
2021/08/19 09:14:39;;;;;;;14.25;7.63;;;18.70;99.90;;;17.63;82.58;101100.91;2568760;30;138160;-44
2021/08/19 09:17:07;;;;;;;11.65;6.57;;;18.80;99.90;;;17.58;82.40;101093.41;2568398;30;138546;-41
2021/08/19 09:19:35;;;;;;;;;;;18.70;99.90;;;17.61;82.07;101098.44;2567859;30;137726;-43
2021/08/19 09:22:07;;;;;;;10.47;6.90;;;18.80;99.90;;;17.61;82.56;101095.66;2567826;30;136843;-41
2021/08/19 09:24:35;;;;;;;10.73;6.95;;;18.70;99.90;;;17.67;81.70;101102.09;2567971;30;137483;-42
2021/08/19 09:27:16;;;;;;;10.57;6.43;;;18.70;99.90;;;17.80;83.41;101100.91;2567797;30;137237;-43
2021/08/19 09:29:46;;;;;;;9.73;6.80;;;18.90;99.90;;;17.85;80.89;101106.50;2566117;30;138538;-40
2021/08/19 09:32:19;;;;;;;11.20;6.22;;;18.90;99.90;;;17.89;81.43;101109.56;2568506;30;137766;-41
2021/08/19 09:34:50;;;;;;;10.73;6.38;;;18.90;99.90;;;18.06;80.80;101104.03;2566813;30;138163;-40
2021/08/19 09:37:20;;;;;;;10.38;6.15;;;19.10;99.90;;;18.11;79.74;101102.16;2566649;30;138276;-40
2021/08/19 09:40:06;;;;;;;10.20;5.85;;;19.10;99.90;;;18.28;79.67;101098.50;2567218;30;138231;-44
2021/08/19 09:42:38;;;;;;;12.38;5.93;;;19.30;99.90;;;18.34;79.28;101094.72;2568183;30;136814;-42
2021/08/19 09:45:21;;;;;;;9.98;5.85;;;19.40;99.90;;;18.47;79.36;101099.00;2567439;30;140596;-40
2021/08/19 09:47:52;;;;;;;9.85;5.43;;;19.40;99.90;;;18.49;78.54;101090.47;2568796;30;137552;-40
2021/08/19 09:50:23;;;;;;;7.57;5.18;;;19.50;99.90;;;18.40;76.21;101095.59;2565205;30;138484;-41
2021/08/19 09:52:52;;;;;;;9.20;5.45;;;19.50;99.90;;;18.36;76.87;101092.50;2566613;30;136942;-41
2021/08/19 09:55:27;;;;;;;8.52;5.57;;;19.50;99.90;;;18.41;77.11;101094.50;2565568;30;137421;-40
2021/08/19 09:57:57;;;;;;;8.48;5.32;;;19.50;99.90;;;18.51;75.25;101094.63;2568217;30;138634;-41
2021/08/19 10:00:41;;;;;;;8.30;5.30;;;19.60;99.90;;;18.54;74.09;101098.81;2568131;30;139441;-41
2021/08/19 10:03:10;;;;;;;9.27;5.28;;;19.60;99.90;;;18.67;76.42;101094.78;2567749;30;138244;-41
2021/08/19 10:05:38;;;;;;;7.07;4.82;;;19.70;99.90;;;18.72;75.18;101091.25;2568033;30;139349;-41
2021/08/19 10:08:09;;;;;;;6.95;4.50;;;19.70;99.90;;;18.77;74.59;101094.88;2567888;30;138444;-40
2021/08/19 10:10:38;;;;;;;7.95;4.85;;;19.80;99.90;;;18.91;75.27;101091.72;2567496;30;138298;-40
2021/08/19 10:13:10;;;;;;;6.82;4.90;;;19.90;99.90;;;19.12;76.72;101095.50;2568113;30;137363;-41